Time;durP1;ratioP1;P1;durP2;ratioP2;P2;SDS_P1;SDS_P2;PMS_P1;PMS_P2;Temp;Humidity;BMP_temperature;BMP_pressure;BME280_temperature;BME280_humidity;BME280_pressure;Samples;Min_cycle;Max_cycle;Signal;HPM_P1;HPM_P2
2022/01/04 00:02:01;;;;;;;1.90;0.63;;;9.70;99.90;;;9.69;100.00;99759.75;5174108;28;20494;-71
2022/01/04 00:04:33;;;;;;;1.52;0.77;;;9.70;99.90;;;9.66;100.00;99750.16;5167450;28;20602;-72
2022/01/04 00:07:05;;;;;;;0.70;0.70;;;9.70;99.90;;;9.66;100.00;99747.56;5178450;28;20056;-72
2022/01/04 00:09:40;;;;;;;1.15;0.93;;;9.70;99.90;;;9.68;100.00;99742.38;5169444;28;20046;-72
2022/01/04 00:15:04;;;;;;;1.17;0.80;;;9.70;99.90;;;9.66;100.00;99728.47;5173085;28;20144;-72
2022/01/04 00:17:37;;;;;;;2.83;0.70;;;9.60;99.90;;;9.66;100.00;99734.56;5173403;28;20052;-72
2022/01/04 00:20:11;;;;;;;2.65;0.95;;;9.70;99.90;;;9.65;100.00;99722.38;5176605;28;20132;-72
2022/01/04 00:22:43;;;;;;;1.45;0.73;;;9.60;99.90;;;9.66;100.00;99718.06;5171569;28;20077;-72
2022/01/04 00:25:15;;;;;;;1.00;0.63;;;9.60;99.90;;;9.66;100.00;99718.06;5181042;28;20053;-71
2022/01/04 00:27:48;;;;;;;0.70;0.70;;;9.60;99.90;;;9.63;100.00;99702.38;5172391;28;20045;-72
2022/01/04 00:30:21;;;;;;;1.27;0.90;;;9.60;99.90;;;9.63;100.00;99697.16;5182254;28;20409;-71
2022/01/04 00:32:53;;;;;;;1.27;0.68;;;9.60;99.90;;;9.63;100.00;99691.97;5174262;28;20052;-72
2022/01/04 00:35:25;;;;;;;1.23;0.80;;;9.60;99.90;;;9.61;100.00;99675.44;5180847;28;20049;-72
2022/01/04 00:37:58;;;;;;;1.80;0.82;;;9.60;99.90;;;9.60;100.00;99671.09;5183287;28;20495;-71
2022/01/04 00:40:30;;;;;;;0.95;0.90;;;9.60;99.90;;;9.58;100.00;99668.44;5183918;28;20050;-72
2022/01/04 00:43:02;;;;;;;1.80;1.02;;;9.60;99.90;;;9.58;100.00;99664.97;5172671;28;20046;-72
2022/01/04 00:45:37;;;;;;;1.15;0.80;;;9.60;99.90;;;9.56;100.00;99649.31;5176162;28;20038;-72
2022/01/04 00:50:59;;;;;;;2.05;1.08;;;9.60;99.90;;;9.56;100.00;99645.84;5169736;28;20419;-71
2022/01/04 00:53:31;;;;;;;1.75;0.60;;;9.60;99.90;;;9.55;100.00;99641.50;5177871;28;20042;-72
2022/01/04 00:56:04;;;;;;;1.33;0.88;;;9.50;99.90;;;9.54;100.00;99644.97;5169857;28;20614;-72
2022/01/04 00:58:36;;;;;;;2.55;1.50;;;9.50;99.90;;;9.51;100.00;99636.22;5185607;28;20468;-71
2022/01/04 01:01:09;;;;;;;2.35;1.00;;;9.50;99.90;;;9.52;100.00;99631.94;5175765;28;20046;-71
2022/01/04 01:03:41;;;;;;;1.25;0.73;;;9.50;99.90;;;9.51;100.00;99631.00;5182313;28;20052;-71
2022/01/04 01:06:14;;;;;;;1.50;0.80;;;9.50;99.90;;;9.49;100.00;99630.13;5175832;28;20042;-72
2022/01/04 01:08:47;;;;;;;1.73;0.70;;;9.40;99.90;;;9.48;100.00;99625.75;5178384;28;20057;-71
2022/01/04 01:11:20;;;;;;;0.70;0.70;;;9.50;99.90;;;9.46;100.00;99617.06;5176575;28;20403;-72
2022/01/04 01:13:52;;;;;;;1.05;0.85;;;9.50;99.90;;;9.45;100.00;99615.31;5183623;28;20049;-72
2022/01/04 01:16:26;;;;;;;1.67;0.80;;;9.40;99.90;;;9.43;100.00;99609.19;5187507;28;20052;-71
2022/01/04 01:18:58;;;;;;;2.22;1.00;;;9.40;99.90;;;9.44;100.00;99610.94;5186842;28;20056;-72
2022/01/04 01:21:30;;;;;;;1.60;0.70;;;9.40;99.90;;;9.42;100.00;99603.97;5186644;28;20045;-71
2022/01/04 01:24:02;;;;;;;1.30;0.80;;;9.40;99.90;;;9.41;100.00;99608.28;5186593;28;20501;-71
2022/01/04 01:26:34;;;;;;;0.75;0.60;;;9.40;99.90;;;9.40;100.00;99600.47;5186761;28;20054;-72
2022/01/04 01:29:05;;;;;;;0.60;0.60;;;9.40;99.90;;;9.41;100.00;99597.00;5187054;28;20052;-72
2022/01/04 01:31:39;;;;;;;2.47;1.05;;;9.40;99.90;;;9.38;100.00;99589.13;5186844;28;20503;-71
2022/01/04 01:34:11;;;;;;;0.95;0.60;;;9.40;99.90;;;9.38;100.00;99590.00;5186575;28;20100;-71
2022/01/04 01:36:43;;;;;;;0.75;0.50;;;9.40;99.90;;;9.38;100.00;99582.19;5187645;28;20050;-72
2022/01/04 01:39:15;;;;;;;1.38;0.70;;;9.40;99.90;;;9.37;100.00;99589.97;5186864;28;20479;-71
2022/01/04 01:41:47;;;;;;;2.35;0.90;;;9.40;99.90;;;9.37;100.00;99579.56;5186203;28;20050;-71
2022/01/04 01:44:19;;;;;;;1.63;0.68;;;9.30;99.90;;;9.37;100.00;99580.44;5185178;28;20054;-71
2022/01/04 01:46:53;;;;;;;0.63;0.63;;;9.40;99.90;;;9.37;100.00;99574.38;5186369;28;20046;-71
2022/01/04 01:49:25;;;;;;;0.88;0.88;;;9.30;99.90;;;9.36;100.00;99575.22;5186912;28;20053;-71
2022/01/04 01:51:58;;;;;;;1.48;0.70;;;9.30;99.90;;;9.35;100.00;99573.47;5186202;28;20050;-71
2022/01/04 01:54:30;;;;;;;1.55;0.88;;;9.30;99.90;;;9.34;100.00;99572.59;5186543;28;20056;-71
2022/01/04 01:57:02;;;;;;;0.93;0.80;;;9.30;99.90;;;9.32;100.00;99570.78;5186567;28;20045;-71
2022/01/04 01:59:34;;;;;;;0.82;0.80;;;9.30;99.90;;;9.30;100.00;99557.75;5186002;28;20513;-71
2022/01/04 02:02:08;;;;;;;1.40;0.85;;;9.30;99.90;;;9.31;100.00;99554.31;5185649;28;20494;-72
2022/01/04 02:04:39;;;;;;;1.05;0.80;;;9.30;99.90;;;9.30;100.00;99549.09;5185801;28;20068;-71
2022/01/04 02:07:13;;;;;;;1.05;0.73;;;9.30;99.90;;;9.29;100.00;99556.00;5186211;28;20060;-71
2022/01/04 02:09:53;;;;;;;0.85;0.80;;;9.30;99.90;;;9.26;100.00;99545.56;5186023;28;20054;-72
2022/01/04 02:12:25;;;;;;;2.10;0.90;;;9.30;99.90;;;9.25;100.00;99541.19;5186068;28;20479;-71
2022/01/04 02:14:57;;;;;;;1.67;1.00;;;9.30;99.90;;;9.25;100.00;99533.38;5185960;28;20050;-71
2022/01/04 02:17:31;;;;;;;1.13;0.77;;;9.20;99.90;;;9.24;100.00;99537.72;5185731;28;20042;-71
2022/01/04 02:20:07;;;;;;;1.52;0.80;;;9.30;99.90;;;9.25;100.00;99533.38;5185817;28;20056;-71
2022/01/04 02:22:39;;;;;;;1.10;0.80;;;9.20;99.90;;;9.24;100.00;99526.44;5185782;28;20053;-71
2022/01/04 02:25:12;;;;;;;2.65;0.90;;;9.20;99.90;;;9.24;100.00;99524.72;5185348;28;20049;-71
2022/01/04 02:27:44;;;;;;;2.20;0.80;;;9.20;99.90;;;9.21;100.00;99521.19;5179948;28;20524;-71
2022/01/04 02:30:19;;;;;;;4.10;0.70;;;9.20;99.90;;;9.19;100.00;99518.56;5182395;28;20056;-71
2022/01/04 02:32:51;;;;;;;1.45;0.90;;;9.20;99.90;;;9.19;100.00;99507.25;5186297;28;20384;-71
2022/01/04 02:35:27;;;;;;;1.08;0.60;;;9.20;99.90;;;9.17;100.00;99501.16;5180500;28;20042;-71
2022/01/04 02:38:01;;;;;;;1.40;0.82;;;9.10;99.90;;;9.14;100.00;99496.78;5179825;28;20050;-71
2022/01/04 02:40:33;;;;;;;1.25;0.70;;;9.10;99.90;;;9.14;100.00;99496.78;5179636;28;20490;-71
2022/01/04 02:43:05;;;;;;;2.35;1.00;;;9.20;99.90;;;9.13;100.00;99491.56;5174613;28;20046;-71
2022/01/04 02:45:37;;;;;;;2.60;1.10;;;9.10;99.90;;;9.10;100.00;99483.69;5181626;28;20046;-71
2022/01/04 02:48:09;;;;;;;1.20;0.80;;;9.10;99.90;;;9.11;100.00;99480.25;5176514;28;20042;-71
2022/01/04 02:50:43;;;;;;;1.63;1.17;;;9.10;99.90;;;9.09;100.00;99475.03;5183593;28;20062;-71
2022/01/04 02:53:15;;;;;;;1.42;0.70;;;9.10;99.90;;;9.10;100.00;99475.91;5185195;28;20056;-71
2022/01/04 02:55:47;;;;;;;1.38;0.90;;;9.10;99.90;;;9.10;100.00;99481.09;5179933;28;20060;-71
2022/01/04 02:58:19;;;;;;;1.05;0.80;;;9.10;99.90;;;9.09;100.00;99480.22;5183812;28;20414;-71
2022/01/04 03:00:51;;;;;;;2.00;0.73;;;9.10;99.90;;;9.11;100.00;99485.44;5184362;28;20128;-72
2022/01/04 03:03:23;;;;;;;0.85;0.70;;;9.10;99.90;;;9.11;100.00;99481.13;5180170;28;20038;-71
2022/01/04 03:05:57;;;;;;;0.95;0.80;;;9.10;99.90;;;9.11;100.00;99483.72;5184233;28;20054;-72
2022/01/04 03:08:29;;;;;;;1.13;0.85;;;9.10;99.90;;;9.10;100.00;99468.97;5181416;28;20137;-71
2022/01/04 03:11:01;;;;;;;1.35;0.50;;;9.10;99.90;;;9.11;100.00;99477.66;5183115;28;20042;-71
2022/01/04 03:13:33;;;;;;;1.58;0.80;;;9.10;99.90;;;9.10;100.00;99462.91;5183682;28;20108;-71
2022/01/04 03:16:05;;;;;;;1.13;0.70;;;9.10;99.90;;;9.08;100.00;99468.06;5167349;28;20484;-71
2022/01/04 03:18:49;;;;;;;2.30;0.93;;;9.10;99.90;;;9.07;100.00;99466.31;5174935;28;20042;-71
2022/01/04 03:21:23;;;;;;;2.75;1.20;;;9.10;99.90;;;9.08;100.00;99457.69;5183219;28;20046;-72
2022/01/04 03:23:55;;;;;;;2.80;1.10;;;9.10;99.90;;;9.07;100.00;99453.34;5183366;28;20050;-71
2022/01/04 03:26:27;;;;;;;2.55;0.90;;;9.10;99.90;;;9.07;100.00;99449.84;5184271;28;20049;-71
2022/01/04 03:29:00;;;;;;;3.65;0.95;;;9.10;99.90;;;9.06;100.00;99446.34;5185568;28;20042;-71
2022/01/04 03:31:32;;;;;;;3.22;1.17;;;9.00;99.90;;;9.06;100.00;99435.09;5184551;28;20140;-71
2022/01/04 03:34:05;;;;;;;1.73;1.25;;;9.10;99.90;;;9.05;100.00;99431.59;5184484;28;20411;-72
2022/01/04 03:36:39;;;;;;;2.08;0.90;;;9.10;99.90;;;9.06;100.00;99425.56;5184820;28;20045;-71
2022/01/04 03:39:12;;;;;;;3.22;1.23;;;9.10;99.90;;;9.07;100.00;99419.53;5184649;28;20050;-72
2022/01/04 03:41:46;;;;;;;2.75;1.10;;;9.10;99.90;;;9.05;100.00;99407.34;5184417;28;20046;-72
2022/01/04 03:44:20;;;;;;;1.77;0.90;;;9.10;99.90;;;9.05;100.00;99404.75;5183988;28;20049;-72
2022/01/04 03:46:55;;;;;;;1.92;1.20;;;9.10;99.90;;;9.04;100.00;99403.88;5184385;28;20058;-72
2022/01/04 03:49:27;;;;;;;4.50;1.35;;;9.10;99.90;;;9.03;100.00;99407.31;5185123;28;20136;-71
2022/01/04 03:52:01;;;;;;;2.78;1.10;;;9.00;99.90;;;9.04;100.00;99397.78;5184494;28;20057;-71
2022/01/04 03:54:33;;;;;;;4.20;1.30;;;9.00;99.90;;;9.05;100.00;99394.34;5184535;28;20054;-72
2022/01/04 03:57:06;;;;;;;3.22;1.45;;;9.00;99.90;;;9.05;100.00;99382.22;5184639;28;20053;-71
2022/01/04 03:59:38;;;;;;;3.92;1.42;;;9.10;99.90;;;9.06;100.00;99380.50;5184343;28;20525;-72
2022/01/04 04:02:10;;;;;;;3.20;1.38;;;9.00;99.90;;;9.05;100.00;99373.56;5184222;28;20057;-72
2022/01/04 04:04:42;;;;;;;2.67;1.67;;;9.00;99.90;;;9.00;100.00;99352.69;5214843;22;20042;-80
2022/01/04 04:07:15;;;;;;;3.05;1.60;;;9.00;99.90;;;8.97;100.00;99350.91;5191334;28;20046;-80
2022/01/04 04:09:47;;;;;;;2.80;1.70;;;9.00;99.90;;;8.99;100.00;99361.31;5195794;28;20065;-80
2022/01/04 04:12:19;;;;;;;3.42;1.50;;;9.00;99.90;;;8.97;100.00;99335.31;5195901;28;20415;-80
2022/01/04 04:14:51;;;;;;;2.35;1.38;;;9.00;99.90;;;8.97;100.00;99334.44;5195861;28;20118;-80
2022/01/04 04:17:23;;;;;;;4.72;1.67;;;9.00;99.90;;;8.96;100.00;99322.28;5195922;28;20056;-80
2022/01/04 04:19:55;;;;;;;4.60;1.95;;;9.00;99.90;;;8.97;100.00;99324.91;5196649;28;20046;-80
2022/01/04 04:22:28;;;;;;;4.60;2.00;;;9.00;99.90;;;8.94;100.00;99309.28;5196129;28;20050;-80
2022/01/04 04:25:00;;;;;;;3.28;1.60;;;9.00;99.90;;;8.98;100.00;99308.47;5195641;28;20049;-81
2022/01/04 04:27:32;;;;;;;2.65;1.40;;;9.00;99.90;;;9.00;100.00;99302.41;5194637;28;20744;-80
2022/01/04 04:30:06;;;;;;;2.80;1.45;;;9.00;99.90;;;9.00;100.00;99297.22;5194494;28;20085;-80
2022/01/04 04:32:38;;;;;;;3.00;2.10;;;9.00;99.90;;;8.98;100.00;99292.88;5193124;28;20496;-80
2022/01/04 04:35:10;;;;;;;3.70;1.20;;;9.00;99.90;;;9.00;100.00;99292.03;5193431;28;20057;-80
2022/01/04 04:37:44;;;;;;;1.88;1.00;;;9.00;99.90;;;9.01;100.00;99280.81;5194700;28;20062;-80
2022/01/04 04:40:16;;;;;;;2.97;2.28;;;9.00;99.90;;;8.93;100.00;99260.75;5202356;28;20393;-80
2022/01/04 04:42:48;;;;;;;1.20;1.10;;;9.00;99.90;;;8.93;100.00;99260.75;5202452;28;20052;-80
2022/01/04 04:45:21;;;;;;;4.70;2.90;;;9.00;99.90;;;8.91;100.00;99259.84;5201390;28;20415;-79
2022/01/04 04:47:53;;;;;;;4.78;2.65;;;8.90;99.90;;;8.88;100.00;99262.41;5201116;28;20064;-81
2022/01/04 04:50:25;;;;;;;2.13;1.60;;;8.90;99.90;;;8.91;100.00;99266.75;5202238;28;20050;-80
2022/01/04 04:52:58;;;;;;;2.70;1.60;;;8.90;99.90;;;8.90;100.00;99265.00;5202721;28;20072;-81
2022/01/04 04:55:31;;;;;;;1.95;1.35;;;8.90;99.90;;;8.90;100.00;99260.69;5202140;28;20488;-81
2022/01/04 04:58:03;;;;;;;3.42;1.83;;;9.00;99.90;;;8.92;100.00;99252.91;5203264;28;20045;-80
2022/01/04 05:00:35;;;;;;;1.50;1.02;;;9.00;99.90;;;8.92;100.00;99248.59;5203926;28;20060;-81
2022/01/04 05:03:07;;;;;;;3.47;1.50;;;8.90;99.90;;;8.87;100.00;99250.25;5203699;28;20050;-80
2022/01/04 05:05:39;;;;;;;3.20;1.80;;;8.90;99.90;;;8.83;100.00;99242.38;5203079;28;20064;-81
2022/01/04 05:08:12;;;;;;;3.53;2.00;;;8.90;99.90;;;8.91;100.00;99256.38;5210774;28;20050;-81
2022/01/04 05:10:44;;;;;;;2.83;1.50;;;8.90;99.90;;;8.92;100.00;99253.78;5210708;28;20050;-78
2022/01/04 05:13:16;;;;;;;2.35;1.20;;;8.90;99.90;;;8.92;100.00;99253.78;5207400;28;20046;-80
2022/01/04 05:15:48;;;;;;;2.00;1.30;;;8.90;99.90;;;8.90;100.00;99245.09;5198460;28;20060;-80
2022/01/04 05:18:20;;;;;;;5.13;2.97;;;8.90;99.90;;;8.92;100.00;99248.59;5196601;28;20061;-80
2022/01/04 05:20:52;;;;;;;4.22;2.20;;;8.90;99.90;;;8.92;100.00;99238.19;5196944;28;20053;-80
2022/01/04 05:23:25;;;;;;;3.05;1.52;;;8.90;99.90;;;8.91;100.00;99241.66;5198291;28;20057;-80
2022/01/04 05:25:57;;;;;;;3.20;1.65;;;9.00;99.90;;;8.89;100.00;99227.75;5197730;28;20499;-80
2022/01/04 05:28:29;;;;;;;2.60;1.23;;;9.00;99.90;;;8.91;100.00;99227.78;5198372;28;20061;-80
2022/01/04 05:31:01;;;;;;;2.85;1.42;;;9.00;99.90;;;8.91;100.00;99230.38;5198627;28;20057;-80
2022/01/04 05:33:33;;;;;;;2.58;1.75;;;8.90;99.90;;;8.91;100.00;99223.47;5199376;28;20053;-80
2022/01/04 05:36:05;;;;;;;2.67;1.50;;;8.90;99.90;;;8.89;100.00;99225.16;5198500;28;20050;-80
2022/01/04 05:38:38;;;;;;;4.05;1.73;;;8.90;99.90;;;8.88;100.00;99214.75;5198752;28;20056;-80
2022/01/04 05:41:10;;;;;;;4.38;1.67;;;8.90;99.90;;;8.90;100.00;99220.84;5198439;28;20057;-80
2022/01/04 05:43:42;;;;;;;6.25;2.22;;;8.90;99.90;;;8.91;100.00;99220.84;5198085;28;20052;-81
2022/01/04 05:46:15;;;;;;;6.82;1.92;;;8.90;99.90;;;8.90;100.00;99219.13;5197757;28;20057;-80
2022/01/04 05:48:47;;;;;;;5.45;1.98;;;8.90;99.90;;;8.88;100.00;99213.03;5198690;28;20049;-80
2022/01/04 05:51:19;;;;;;;5.00;1.88;;;8.90;99.90;;;8.88;100.00;99214.75;5197320;28;20050;-80
2022/01/04 05:53:52;;;;;;;3.13;1.75;;;8.90;99.90;;;8.76;100.00;99191.16;5197337;28;20068;-80
2022/01/04 05:56:24;;;;;;;2.88;1.65;;;8.90;99.90;;;8.85;100.00;99207.75;5197763;28;20046;-80
2022/01/04 05:58:56;;;;;;;2.78;1.50;;;8.90;99.90;;;8.85;100.00;99206.88;5197880;28;20049;-80
2022/01/04 06:01:28;;;;;;;3.47;1.60;;;8.90;99.90;;;8.87;100.00;99208.69;5197778;28;20054;-80
2022/01/04 06:04:00;;;;;;;3.15;1.60;;;8.90;99.90;;;8.86;100.00;99200.84;5196721;28;20411;-80
2022/01/04 06:06:32;;;;;;;4.50;1.50;;;8.90;99.90;;;8.83;100.00;99201.69;5196185;28;20060;-81
2022/01/04 06:09:05;;;;;;;3.83;1.40;;;8.90;99.90;;;8.88;100.00;99209.56;5196799;28;20050;-81
2022/01/04 06:11:56;;;;;;;3.53;1.42;;;8.80;99.90;;;8.86;100.00;99206.03;5197880;28;20062;-80
2022/01/04 06:17:19;;;;;;;1.92;1.15;;;8.90;99.90;;;8.81;100.00;99197.31;5198416;28;20053;-81
2022/01/04 06:19:51;;;;;;;2.78;1.40;;;8.80;99.90;;;8.82;100.00;99199.06;5195708;28;20061;-80
2022/01/04 06:22:24;;;;;;;2.58;1.23;;;8.80;99.90;;;8.81;100.00;99180.00;5197055;28;20506;-80
2022/01/04 06:24:58;;;;;;;5.72;2.95;;;8.80;99.90;;;8.81;100.00;99174.81;5196732;28;20060;-80
2022/01/04 06:27:30;;;;;;;2.45;1.50;;;8.80;99.90;;;8.78;100.00;99173.88;5196691;28;20052;-81
2022/01/04 06:30:03;;;;;;;6.13;3.03;;;8.80;99.90;;;8.78;100.00;99173.88;5195231;28;20050;-80
2022/01/04 06:32:36;;;;;;;6.88;2.40;;;8.80;99.90;;;8.76;100.00;99184.25;5196436;28;20052;-80
2022/01/04 06:35:08;;;;;;;5.55;2.28;;;8.80;99.90;;;8.78;100.00;99192.94;5198553;28;20081;-80
2022/01/04 06:37:41;;;;;;;6.13;2.05;;;8.80;99.90;;;8.77;100.00;99192.91;5202126;28;20572;-81
2022/01/04 06:40:15;;;;;;;5.18;1.92;;;8.80;99.90;;;8.77;100.00;99192.91;5197749;28;20113;-82
2022/01/04 06:42:47;;;;;;;6.00;2.00;;;8.80;99.90;;;8.72;100.00;99177.22;5197788;28;20117;-81
2022/01/04 06:45:18;;;;;;;5.72;2.75;;;8.80;99.90;;;8.68;100.00;99173.72;5201635;28;20050;-80
2022/01/04 06:47:51;;;;;;;5.03;2.45;;;8.80;99.90;;;8.74;100.00;99170.38;5199036;28;20053;-81
2022/01/04 06:50:23;;;;;;;5.55;2.70;;;8.80;99.90;;;8.74;100.00;99165.16;5196392;28;20053;-80
2022/01/04 06:52:55;;;;;;;4.10;2.38;;;8.70;99.90;;;8.75;100.00;99161.72;5195913;28;20054;-80
2022/01/04 06:55:28;;;;;;;10.02;4.20;;;8.80;99.90;;;8.76;100.00;99158.25;5195581;28;20362;-81
2022/01/04 06:58:00;;;;;;;11.13;6.40;;;8.80;99.90;;;8.76;100.00;99147.88;5192466;28;20061;-83
2022/01/04 07:00:32;;;;;;;9.38;5.03;;;8.80;99.90;;;8.76;100.00;99142.69;5189986;28;20492;-83
2022/01/04 07:03:04;;;;;;;8.63;4.70;;;8.80;99.90;;;8.77;100.00;99147.03;5190616;28;20048;-84
2022/01/04 07:05:36;;;;;;;7.03;3.72;;;8.80;99.90;;;8.76;100.00;99137.47;5190125;28;20655;-83
2022/01/04 07:08:08;;;;;;;5.05;2.50;;;8.80;99.90;;;8.74;100.00;99138.28;5189582;28;20129;-83
2022/01/04 07:10:41;;;;;;;7.72;4.22;;;8.80;99.90;;;8.74;100.00;99138.28;5189072;28;20046;-83
2022/01/04 07:13:13;;;;;;;15.73;7.50;;;8.80;99.90;;;8.70;100.00;99127.00;5190920;28;20060;-83
2022/01/04 07:15:46;;;;;;;8.68;4.50;;;8.70;99.90;;;8.69;100.00;99133.03;5191511;28;20121;-82
2022/01/04 07:18:18;;;;;;;8.60;3.65;;;8.70;99.90;;;8.69;100.00;99130.44;5192026;28;20053;-83
2022/01/04 07:20:50;;;;;;;9.05;4.18;;;8.70;99.90;;;8.68;100.00;99132.16;5192089;28;20522;-82
2022/01/04 07:23:22;;;;;;;17.05;8.02;;;8.70;99.90;;;8.69;100.00;99127.84;5192697;28;20057;-83
2022/01/04 07:25:56;;;;;;;9.35;3.40;;;8.70;99.90;;;8.69;100.00;99131.31;5194210;28;20483;-82
2022/01/04 07:28:28;;;;;;;9.38;3.72;;;8.70;99.90;;;8.62;100.00;99118.22;5188241;28;20171;-82
2022/01/04 07:31:00;;;;;;;10.27;5.30;;;8.70;99.90;;;8.58;100.00;99121.59;5187891;28;20050;-82
2022/01/04 07:33:32;;;;;;;11.75;5.10;;;8.70;99.90;;;8.57;100.00;99119.84;5187884;28;20057;-83
2022/01/04 07:36:06;;;;;;;8.70;4.05;;;8.70;99.90;;;8.60;100.00;99117.28;5187941;28;20484;-83
2022/01/04 07:38:39;;;;;;;13.20;6.20;;;8.70;99.90;;;8.61;100.00;99125.13;5187925;28;20504;-82
2022/01/04 07:41:12;;;;;;;12.07;5.07;;;8.70;99.90;;;8.60;100.00;99120.75;5187475;28;20054;-83
2022/01/04 07:43:44;;;;;;;24.77;11.30;;;8.60;99.90;;;8.61;100.00;99121.66;5187302;28;20099;-83
2022/01/04 07:46:16;;;;;;;16.13;7.57;;;8.70;99.90;;;8.60;100.00;99123.34;5187671;28;20124;-81
2022/01/04 07:48:50;;;;;;;13.55;5.82;;;8.60;99.90;;;8.61;100.00;99127.72;5187576;28;20053;-84
2022/01/04 07:51:22;;;;;;;20.25;7.70;;;8.60;99.90;;;8.59;100.00;99134.59;5187796;28;20148;-84
2022/01/04 07:53:54;;;;;;;15.43;5.85;;;8.60;99.90;;;8.61;100.00;99126.88;5187794;28;20073;-83
2022/01/04 07:56:27;;;;;;;14.80;5.85;;;8.70;99.90;;;8.62;100.00;99123.41;5188051;28;20050;-83
2022/01/04 07:59:00;;;;;;;17.80;6.13;;;8.60;99.90;;;8.64;100.00;99134.69;5188364;28;20061;-83
2022/01/04 08:01:33;;;;;;;18.60;6.93;;;8.60;99.90;;;8.64;100.00;99130.38;5187939;28;20140;-83
2022/01/04 08:04:05;;;;;;;10.98;4.57;;;8.70;99.90;;;8.64;100.00;99124.28;5187838;28;20053;-82
2022/01/04 08:06:39;;;;;;;12.88;5.25;;;8.60;99.90;;;8.63;100.00;99130.34;5187427;28;20501;-83
2022/01/04 08:09:10;;;;;;;13.25;5.55;;;8.70;99.90;;;8.66;100.00;99132.97;5187912;28;20555;-83
2022/01/04 08:11:44;;;;;;;12.10;4.78;;;8.70;99.90;;;8.65;100.00;99128.63;5187964;28;20049;-83
2022/01/04 08:14:16;;;;;;;13.25;5.55;;;8.70;99.90;;;8.65;100.00;99133.84;5187130;28;20061;-83
2022/01/04 08:16:48;;;;;;;11.20;3.85;;;8.70;99.90;;;8.66;100.00;99135.56;5188241;28;20460;-84
2022/01/04 08:19:20;;;;;;;9.45;4.05;;;8.70;99.90;;;8.66;100.00;99136.44;5188576;28;20054;-83
2022/01/04 08:21:51;;;;;;;6.78;3.03;;;8.70;99.90;;;8.69;100.00;99133.91;5188357;28;20049;-84
2022/01/04 08:24:23;;;;;;;7.40;2.97;;;8.70;99.90;;;8.62;100.00;99111.28;5188892;28;20048;-84
2022/01/04 08:26:57;;;;;;;6.13;3.28;;;8.70;99.90;;;8.73;100.00;99126.16;5188500;28;20049;-81
2022/01/04 08:29:30;;;;;;;6.50;2.70;;;8.70;99.90;;;8.72;100.00;99125.28;5188231;28;20054;-82
2022/01/04 08:32:03;;;;;;;5.60;2.55;;;8.70;99.90;;;8.75;100.00;99120.16;5188113;28;20069;-82
2022/01/04 08:34:35;;;;;;;8.63;2.97;;;8.70;99.90;;;8.75;100.00;99114.97;5187869;28;20050;-81
2022/01/04 08:37:07;;;;;;;6.68;2.63;;;8.80;99.90;;;8.76;100.00;99121.91;5188341;28;20046;-82
2022/01/04 08:39:39;;;;;;;12.15;4.10;;;8.80;99.90;;;8.77;100.00;99118.44;5188501;28;20058;-82
2022/01/04 08:42:13;;;;;;;9.80;3.85;;;8.80;99.90;;;8.76;100.00;99103.72;5187162;28;20046;-83
2022/01/04 08:44:45;;;;;;;8.73;3.72;;;8.80;99.90;;;8.76;100.00;99102.84;5186377;28;20049;-82
2022/01/04 08:47:17;;;;;;;9.50;3.33;;;8.80;99.90;;;8.77;100.00;99095.06;5187310;28;20061;-82
2022/01/04 08:49:49;;;;;;;6.38;3.45;;;8.80;99.90;;;8.76;100.00;99090.72;5187597;28;20085;-83
2022/01/04 08:52:22;;;;;;;8.07;3.20;;;8.80;99.90;;;8.76;100.00;99088.13;5187245;28;20060;-82
2022/01/04 08:54:54;;;;;;;8.07;3.38;;;8.80;99.90;;;8.76;100.00;99090.72;5191065;28;20046;-83
2022/01/04 08:57:29;;;;;;;9.93;3.50;;;8.80;99.90;;;8.79;100.00;99098.53;5190671;28;20056;-83
2022/01/04 09:00:01;;;;;;;6.90;2.88;;;8.80;99.90;;;8.81;100.00;99094.28;5190992;28;20128;-82
2022/01/04 09:02:34;;;;;;;7.13;3.10;;;8.80;99.90;;;8.80;100.00;99102.91;5190684;28;20057;-83
2022/01/04 09:05:07;;;;;;;7.47;3.28;;;8.80;99.90;;;8.81;100.00;99102.06;5190267;28;20057;-82
2022/01/04 09:07:39;;;;;;;6.78;3.50;;;8.80;99.90;;;8.83;100.00;99110.75;5190681;28;20054;-83
2022/01/04 09:10:11;;;;;;;6.78;3.15;;;8.80;99.90;;;8.84;100.00;99112.47;5190940;28;20064;-82
2022/01/04 09:12:54;;;;;;;7.10;3.15;;;8.80;99.90;;;8.86;100.00;99115.09;5190952;28;20049;-83
2022/01/04 09:15:46;;;;;;;14.23;3.38;;;8.80;99.90;;;8.83;100.00;99122.88;5190597;28;20085;-82
2022/01/04 09:21:08;;;;;;;6.57;2.90;;;8.80;99.90;;;8.85;100.00;99127.22;5190806;28;20582;-82
2022/01/04 09:23:40;;;;;;;9.40;3.88;;;8.90;99.90;;;8.86;100.00;99118.56;5191096;28;20447;-82
2022/01/04 09:26:12;;;;;;;7.25;3.53;;;8.90;99.90;;;8.87;100.00;99125.53;5191828;28;20385;-82
2022/01/04 09:28:47;;;;;;;7.82;3.05;;;8.90;99.90;;;8.91;100.00;99140.31;5192285;28;20407;-83
2022/01/04 09:31:21;;;;;;;28.35;5.07;;;8.90;99.90;;;8.91;100.00;99137.72;5191470;28;20050;-83
2022/01/04 09:33:55;;;;;;;50.30;6.90;;;8.90;99.90;;;8.91;100.00;99132.50;5191398;28;20042;-83
2022/01/04 09:36:29;;;;;;;10.60;3.17;;;8.90;99.90;;;8.94;100.00;99139.50;5192670;28;20053;-82
2022/01/04 09:39:04;;;;;;;5.05;2.28;;;8.90;99.90;;;8.94;100.00;99145.56;5192862;28;20054;-83
2022/01/04 09:41:36;;;;;;;6.03;2.10;;;8.90;99.90;;;8.94;100.00;99142.97;5192774;28;20081;-82
2022/01/04 09:44:09;;;;;;;5.40;1.88;;;8.90;99.90;;;8.95;100.00;99147.31;5195041;28;20093;-82
2022/01/04 09:46:43;;;;;;;5.00;2.03;;;8.90;99.90;;;8.92;100.00;99129.06;5194747;28;20519;-82
2022/01/04 09:49:16;;;;;;;3.95;1.73;;;8.90;99.90;;;8.89;100.00;99105.63;5191190;28;20050;-82
2022/01/04 09:51:48;;;;;;;5.25;2.50;;;8.90;99.90;;;8.93;100.00;99120.44;5191256;28;20053;-82
2022/01/04 09:54:24;;;;;;;5.40;1.70;;;8.90;99.90;;;8.91;100.00;99134.22;5190561;28;20056;-82
2022/01/04 09:56:56;;;;;;;3.63;1.80;;;8.90;99.90;;;8.90;100.00;99135.97;5190774;28;20096;-82
2022/01/04 09:59:29;;;;;;;3.40;1.95;;;8.90;99.90;;;8.91;100.00;99148.09;5190906;28;20054;-83
2022/01/04 10:02:14;;;;;;;7.13;2.10;;;8.90;99.90;;;8.92;100.00;99146.38;5191047;28;20054;-83
2022/01/04 10:07:22;;;;;;;30.00;5.05;;;8.90;99.90;;;8.92;100.00;99152.44;5168593;28;20524;-79
2022/01/04 10:09:54;;;;;;;4.38;1.60;;;8.90;99.90;;;8.95;100.00;99144.72;5170261;28;20547;-79
2022/01/04 10:12:27;;;;;;;5.38;1.55;;;8.90;99.90;;;8.97;100.00;99134.31;5171554;28;20058;-80
2022/01/04 10:15:01;;;;;;;9.27;2.00;;;8.90;99.90;;;8.97;100.00;99111.81;5172329;28;20101;-80
2022/01/04 10:17:35;;;;;;;7.82;2.00;;;8.90;99.90;;;8.98;100.00;99099.69;5172564;28;20060;-80
2022/01/04 10:20:09;;;;;;;5.63;1.55;;;9.00;99.90;;;8.98;100.00;99097.97;5171594;28;20046;-80
2022/01/04 10:22:41;;;;;;;2.85;1.40;;;9.00;99.90;;;9.01;100.00;99085.88;5171902;28;20058;-78
2022/01/04 10:25:16;;;;;;;9.55;2.13;;;9.00;99.90;;;9.00;100.00;99079.81;5171976;28;20059;-80
2022/01/04 10:27:50;;;;;;;3.33;1.63;;;9.00;99.90;;;9.03;100.00;99089.38;5172273;28;20580;-79
2022/01/04 10:30:28;;;;;;;2.90;1.60;;;9.00;99.90;;;9.01;100.00;99089.34;5172670;28;20054;-80
2022/01/04 10:33:05;;;;;;;5.72;1.58;;;9.00;99.90;;;9.01;100.00;99094.56;5172354;28;20050;-80
2022/01/04 10:35:41;;;;;;;6.50;1.35;;;9.00;99.90;;;9.01;100.00;99101.47;5171915;28;20141;-80
2022/01/04 10:38:16;;;;;;;5.50;1.75;;;9.00;99.90;;;8.96;100.00;99122.19;5173158;28;20050;-80
2022/01/04 10:40:52;;;;;;;4.50;1.45;;;9.00;99.90;;;8.96;100.00;99124.78;5172071;28;20493;-80
2022/01/04 10:43:28;;;;;;;3.47;1.38;;;9.00;99.90;;;8.95;100.00;99134.31;5172388;28;20050;-80
2022/01/04 10:46:02;;;;;;;3.75;1.52;;;9.00;99.90;;;8.96;100.00;99141.25;5171487;28;20050;-81
2022/01/04 10:48:39;;;;;;;3.60;1.50;;;8.90;99.90;;;8.95;100.00;99143.84;5171368;28;20078;-81
2022/01/04 10:51:13;;;;;;;2.15;1.38;;;9.00;99.90;;;8.97;100.00;99147.31;5171241;28;20046;-80
2022/01/04 10:53:49;;;;;;;3.45;1.65;;;9.00;99.90;;;8.98;100.00;99136.94;5172758;28;20055;-80
2022/01/04 10:56:28;;;;;;;2.38;1.20;;;9.00;99.90;;;9.00;100.00;99137.00;5171047;28;20050;-80
2022/01/04 10:59:04;;;;;;;3.20;1.35;;;9.00;99.90;;;9.00;100.00;99141.28;5169501;28;20046;-80
2022/01/04 11:01:42;;;;;;;2.95;1.50;;;9.00;99.90;;;8.96;100.00;99125.66;5170644;28;20057;-80
2022/01/04 11:04:16;;;;;;;5.45;1.60;;;9.00;99.90;;;8.98;100.00;99120.47;5171508;28;20065;-79